createdAt,value
2018-12-07T00:00:16.541Z,997.99
2018-12-07T00:01:22.802Z,997.95
2018-12-07T00:02:29.055Z,997.96
2018-12-07T00:03:35.316Z,997.90
2018-12-07T00:04:41.563Z,997.88
2018-12-07T00:05:47.820Z,997.82
2018-12-07T00:06:54.079Z,997.76
2018-12-07T00:08:00.346Z,997.76
2018-12-07T00:09:06.583Z,997.71
2018-12-07T00:10:12.847Z,997.84
2018-12-07T00:11:19.091Z,997.72
2018-12-07T00:12:25.357Z,997.76
2018-12-07T00:13:31.620Z,997.72
2018-12-07T00:14:37.882Z,997.72
2018-12-07T00:15:44.139Z,997.73
2018-12-07T00:16:50.409Z,997.64
2018-12-07T00:17:56.660Z,997.67
2018-12-07T00:19:02.946Z,997.65
2018-12-07T00:20:09.170Z,997.65
2018-12-07T00:21:15.431Z,997.70
2018-12-07T00:22:21.699Z,997.66
2018-12-07T00:23:27.950Z,997.65
2018-12-07T00:24:34.207Z,997.67
2018-12-07T00:25:40.459Z,997.71
2018-12-07T00:26:46.722Z,997.64
2018-12-07T00:27:52.981Z,997.57
2018-12-07T00:28:59.247Z,997.61
2018-12-07T00:30:05.498Z,997.57
2018-12-07T00:31:11.756Z,997.54
2018-12-07T00:32:18.012Z,997.53
2018-12-07T00:33:24.280Z,997.50
2018-12-07T00:34:30.530Z,997.45
2018-12-07T00:35:36.794Z,997.41
2018-12-07T00:36:43.058Z,997.43
2018-12-07T00:37:49.312Z,997.40
2018-12-07T00:38:55.583Z,997.42
2018-12-07T00:40:01.840Z,997.41
2018-12-07T00:41:08.091Z,997.37
2018-12-07T00:42:14.350Z,997.33
2018-12-07T00:43:20.611Z,997.30
2018-12-07T00:44:26.884Z,997.31
2018-12-07T00:45:33.139Z,997.24
2018-12-07T00:46:39.405Z,997.29
2018-12-07T00:47:45.678Z,997.23
2018-12-07T00:48:51.927Z,997.22
2018-12-07T00:49:58.195Z,997.26
2018-12-07T00:51:04.445Z,997.20
2018-12-07T00:52:10.710Z,997.24
2018-12-07T00:53:16.981Z,997.26
2018-12-07T00:54:23.246Z,997.23
2018-12-07T00:55:29.504Z,997.27
2018-12-07T00:56:35.761Z,997.25
2018-12-07T00:57:42.026Z,997.20
2018-12-07T00:58:48.289Z,997.20
2018-12-07T00:59:54.558Z,997.26
2018-12-07T01:01:00.806Z,997.20
2018-12-07T01:02:07.067Z,997.18
2018-12-07T01:03:13.331Z,997.13
2018-12-07T01:04:19.606Z,997.15
2018-12-07T01:05:25.858Z,997.14
2018-12-07T01:06:32.134Z,997.17
2018-12-07T01:07:38.395Z,997.16
2018-12-07T01:08:44.645Z,997.12
2018-12-07T01:09:50.922Z,997.16
2018-12-07T01:10:57.179Z,997.10
2018-12-07T01:12:03.443Z,997.07
2018-12-07T01:13:09.700Z,997.10
2018-12-07T01:14:15.970Z,997.17
2018-12-07T01:15:22.228Z,997.03
2018-12-07T01:16:28.591Z,997.01
2018-12-07T01:17:34.758Z,997.02
2018-12-07T01:18:41.027Z,996.99
2018-12-07T01:19:47.291Z,996.97
2018-12-07T01:20:53.541Z,996.99
2018-12-07T01:21:59.812Z,997.00
2018-12-07T01:23:06.086Z,997.01
2018-12-07T01:24:12.356Z,997.02
2018-12-07T01:25:18.615Z,996.98
2018-12-07T01:26:24.869Z,996.99
2018-12-07T01:27:31.134Z,996.98
2018-12-07T01:28:37.409Z,996.96
2018-12-07T01:29:43.685Z,996.95
2018-12-07T01:30:49.941Z,996.99
2018-12-07T01:31:56.205Z,997.03
2018-12-07T01:33:02.574Z,996.93
2018-12-07T01:34:08.741Z,996.92
2018-12-07T01:35:15.005Z,996.92
2018-12-07T01:36:21.266Z,996.85
2018-12-07T01:37:27.538Z,996.85
2018-12-07T01:38:33.803Z,996.84
2018-12-07T01:39:40.068Z,996.83
2018-12-07T01:40:46.344Z,996.78
2018-12-07T01:41:52.599Z,996.76
2018-12-07T01:42:58.884Z,996.85
2018-12-07T01:44:05.162Z,996.82
2018-12-07T01:45:11.420Z,996.79
2018-12-07T01:46:17.669Z,996.73
2018-12-07T01:47:23.943Z,996.72
2018-12-07T01:48:30.209Z,996.72
2018-12-07T01:49:36.570Z,996.74
2018-12-07T01:50:42.768Z,996.69
2018-12-07T01:51:48.993Z,996.68
2018-12-07T01:52:55.256Z,996.66
2018-12-07T01:54:01.521Z,996.68
2018-12-07T01:55:07.807Z,996.70
2018-12-07T01:56:14.062Z,996.68
2018-12-07T01:57:20.324Z,996.71
2018-12-07T01:58:26.588Z,996.74
2018-12-07T01:59:32.858Z,996.71
2018-12-07T02:00:39.127Z,996.72
2018-12-07T02:01:45.379Z,996.74
2018-12-07T02:02:51.649Z,996.74
2018-12-07T02:03:57.912Z,996.71
2018-12-07T02:05:04.186Z,996.72
2018-12-07T02:06:10.453Z,996.71
2018-12-07T02:07:16.718Z,996.71
2018-12-07T02:08:22.991Z,996.73
2018-12-07T02:09:29.246Z,996.71
2018-12-07T02:10:35.525Z,996.72
2018-12-07T02:11:41.791Z,996.74
2018-12-07T02:12:48.052Z,996.67
2018-12-07T02:14:09.268Z,996.68
2018-12-07T02:15:17.169Z,996.68
2018-12-07T02:16:23.443Z,996.66
2018-12-07T02:17:29.715Z,996.63
2018-12-07T02:18:35.975Z,996.65
2018-12-07T02:19:42.239Z,996.59
2018-12-07T02:20:48.505Z,996.53
2018-12-07T02:21:54.794Z,996.53
2018-12-07T02:23:01.047Z,996.53
2018-12-07T02:24:07.321Z,996.48
2018-12-07T02:25:13.593Z,996.50
2018-12-07T02:26:19.862Z,996.48
2018-12-07T02:27:26.119Z,996.45
2018-12-07T02:28:32.398Z,996.45
2018-12-07T02:29:38.663Z,996.41
2018-12-07T02:30:44.934Z,996.44
2018-12-07T02:31:51.213Z,996.42
2018-12-07T02:32:57.470Z,996.40
2018-12-07T02:34:03.734Z,996.35
2018-12-07T02:35:09.999Z,996.36
2018-12-07T02:36:16.285Z,996.34
2018-12-07T02:37:22.558Z,996.38
2018-12-07T02:38:28.816Z,996.38
2018-12-07T02:39:35.090Z,996.36
2018-12-07T02:40:41.358Z,996.34
2018-12-07T02:41:47.625Z,996.39
2018-12-07T02:42:53.886Z,996.34
2018-12-07T02:44:00.164Z,996.36
2018-12-07T02:45:06.426Z,996.34
2018-12-07T02:46:12.706Z,996.35
2018-12-07T02:47:18.968Z,996.31
2018-12-07T02:48:25.249Z,996.35
2018-12-07T02:49:31.488Z,996.34
2018-12-07T02:50:37.754Z,996.33
2018-12-07T02:51:44.025Z,996.38
2018-12-07T02:52:50.286Z,996.33
2018-12-07T02:53:56.551Z,996.36
2018-12-07T02:55:02.816Z,996.36
2018-12-07T02:56:09.078Z,996.33
2018-12-07T02:57:15.344Z,996.31
2018-12-07T02:58:21.610Z,996.33
2018-12-07T02:59:27.864Z,996.32
2018-12-07T03:00:34.122Z,996.32
2018-12-07T03:01:40.391Z,996.31
2018-12-07T03:02:46.661Z,996.30
2018-12-07T03:03:52.914Z,996.30
2018-12-07T03:04:59.185Z,996.24
2018-12-07T03:06:05.445Z,996.31
2018-12-07T03:07:11.743Z,996.25
2018-12-07T03:08:18.978Z,996.25
2018-12-07T03:09:24.241Z,996.22
2018-12-07T03:10:30.511Z,996.20
2018-12-07T03:11:36.762Z,996.14
2018-12-07T03:12:43.031Z,996.09
2018-12-07T03:13:49.286Z,996.08
2018-12-07T03:14:55.553Z,996.08
2018-12-07T03:16:01.833Z,996.03
2018-12-07T03:17:08.084Z,996.06
2018-12-07T03:18:14.353Z,996.07
2018-12-07T03:19:20.614Z,996.06
2018-12-07T03:20:26.887Z,996.07
2018-12-07T03:21:33.142Z,996.04
2018-12-07T03:22:39.410Z,996.02
2018-12-07T03:23:45.686Z,995.94
2018-12-07T03:24:51.948Z,995.97
2018-12-07T03:25:58.213Z,995.91
2018-12-07T03:27:04.577Z,995.97
2018-12-07T03:28:10.751Z,995.95
2018-12-07T03:29:17.311Z,995.89
2018-12-07T03:30:23.275Z,995.88
2018-12-07T03:31:29.530Z,995.84
2018-12-07T03:32:35.802Z,995.85
2018-12-07T03:33:42.082Z,995.86
2018-12-07T03:34:48.331Z,995.86
2018-12-07T03:35:54.603Z,995.88
2018-12-07T03:37:00.861Z,995.87
2018-12-07T03:38:07.131Z,995.87
2018-12-07T03:39:13.388Z,995.86
2018-12-07T03:40:19.659Z,995.82
2018-12-07T03:41:25.911Z,995.79
2018-12-07T03:42:32.170Z,995.74
2018-12-07T03:43:38.443Z,995.66
2018-12-07T03:44:44.709Z,995.64
2018-12-07T03:45:50.974Z,995.63
2018-12-07T03:46:57.237Z,995.67
2018-12-07T03:48:03.504Z,995.65
2018-12-07T03:49:10.773Z,995.66
2018-12-07T03:50:16.038Z,995.66
2018-12-07T03:51:22.293Z,995.68
2018-12-07T03:52:28.557Z,995.70
2018-12-07T03:53:34.847Z,995.63
2018-12-07T03:54:41.099Z,995.63
2018-12-07T03:55:47.368Z,995.58
2018-12-07T03:56:53.631Z,995.58
2018-12-07T03:58:00.895Z,995.53
2018-12-07T03:59:06.174Z,995.51
2018-12-07T04:00:12.443Z,995.55
2018-12-07T04:01:18.687Z,995.56
2018-12-07T04:02:24.962Z,995.50
2018-12-07T04:03:31.225Z,995.58
2018-12-07T04:04:37.497Z,995.48
2018-12-07T04:05:43.754Z,995.40
2018-12-07T04:06:50.022Z,995.48
2018-12-07T04:07:56.287Z,995.47
2018-12-07T04:09:02.568Z,995.45
2018-12-07T04:10:08.809Z,995.43
2018-12-07T04:11:15.076Z,995.41
2018-12-07T04:12:21.356Z,995.47
2018-12-07T04:13:27.610Z,995.47
2018-12-07T04:14:33.887Z,995.44
2018-12-07T04:15:40.147Z,995.44
2018-12-07T04:16:46.410Z,995.48
2018-12-07T04:17:52.669Z,995.50
2018-12-07T04:18:58.939Z,995.47
2018-12-07T04:20:05.211Z,995.51
2018-12-07T04:21:11.452Z,995.48
2018-12-07T04:22:17.732Z,995.50
2018-12-07T04:23:23.978Z,995.50
2018-12-07T04:24:30.256Z,995.46
2018-12-07T04:25:36.516Z,995.48
2018-12-07T04:26:42.777Z,995.44
2018-12-07T04:27:49.038Z,995.45
2018-12-07T04:28:55.298Z,995.46
2018-12-07T04:30:01.564Z,995.44
2018-12-07T04:31:07.827Z,995.46
2018-12-07T04:32:14.088Z,995.47
2018-12-07T04:33:20.354Z,995.42
2018-12-07T04:34:26.609Z,995.41
2018-12-07T04:35:32.874Z,995.41
2018-12-07T04:36:39.127Z,995.47
2018-12-07T04:37:45.395Z,995.54
2018-12-07T04:38:51.649Z,995.51
2018-12-07T04:39:57.908Z,995.54
2018-12-07T04:41:04.174Z,995.51
2018-12-07T04:42:10.428Z,995.56
2018-12-07T04:43:16.687Z,995.57
2018-12-07T04:44:22.949Z,995.59
2018-12-07T04:45:29.203Z,995.60
2018-12-07T04:46:35.455Z,995.55
2018-12-07T04:47:41.721Z,995.57
2018-12-07T04:48:47.972Z,995.48
2018-12-07T04:49:54.230Z,995.48
2018-12-07T04:51:00.604Z,995.46
2018-12-07T04:52:06.757Z,995.32
2018-12-07T04:53:13.011Z,995.30
2018-12-07T04:54:19.266Z,995.28
2018-12-07T04:55:25.521Z,995.26
2018-12-07T04:56:33.659Z,995.23
2018-12-07T04:57:38.038Z,995.25
2018-12-07T04:58:44.284Z,995.18
2018-12-07T04:59:50.540Z,995.24
2018-12-07T05:00:56.808Z,995.20
2018-12-07T05:02:03.058Z,995.19
2018-12-07T05:03:09.324Z,995.15
2018-12-07T05:04:15.575Z,995.14
2018-12-07T05:05:21.843Z,995.12
2018-12-07T05:06:28.098Z,995.11
2018-12-07T05:07:34.345Z,995.12
2018-12-07T05:08:40.606Z,995.07
2018-12-07T05:09:46.872Z,995.11
2018-12-07T05:10:53.131Z,995.11
2018-12-07T05:11:59.380Z,995.09
2018-12-07T05:13:05.636Z,995.12
2018-12-07T05:14:11.908Z,995.13
2018-12-07T05:15:18.152Z,995.10
2018-12-07T05:16:24.411Z,995.11
2018-12-07T05:17:30.660Z,995.09
2018-12-07T05:18:36.921Z,995.18
2018-12-07T05:19:44.180Z,995.07
2018-12-07T05:20:49.453Z,995.04
2018-12-07T05:21:55.685Z,995.05
2018-12-07T05:23:01.949Z,995.06
2018-12-07T05:24:08.201Z,995.04
2018-12-07T05:25:14.467Z,995.02
2018-12-07T05:26:20.746Z,994.99
2018-12-07T05:27:26.985Z,995.01
2018-12-07T05:28:33.234Z,994.99
2018-12-07T05:29:39.499Z,995.05
2018-12-07T05:30:45.752Z,994.98
2018-12-07T05:31:52.019Z,994.94
2018-12-07T05:32:58.267Z,994.94
2018-12-07T05:34:04.524Z,994.91
2018-12-07T05:35:10.781Z,995.04
2018-12-07T05:36:17.050Z,994.92
2018-12-07T05:37:23.313Z,994.94
2018-12-07T05:38:29.573Z,994.91
2018-12-07T05:39:35.835Z,994.90
2018-12-07T05:40:42.080Z,994.90
2018-12-07T05:41:48.343Z,994.90
2018-12-07T05:42:54.592Z,994.88
2018-12-07T05:44:00.845Z,994.87
2018-12-07T05:45:07.100Z,994.92
2018-12-07T05:46:13.365Z,994.92
2018-12-07T05:47:19.630Z,994.93
2018-12-07T05:48:26.877Z,994.95
2018-12-07T05:49:32.140Z,994.87
2018-12-07T05:50:38.405Z,994.84
2018-12-07T05:51:44.662Z,994.89
2018-12-07T05:52:50.908Z,994.95
2018-12-07T05:53:57.167Z,994.87
2018-12-07T05:55:03.437Z,994.86
2018-12-07T05:56:09.673Z,994.93
2018-12-07T05:57:15.936Z,994.87
2018-12-07T05:58:22.179Z,994.86
2018-12-07T05:59:28.441Z,994.84
2018-12-07T06:00:34.688Z,994.79
2018-12-07T06:01:40.959Z,994.76
2018-12-07T06:02:47.715Z,994.82
2018-12-07T06:03:53.460Z,994.77
2018-12-07T06:04:59.714Z,994.85
2018-12-07T06:06:05.972Z,994.75
2018-12-07T06:07:12.230Z,994.69
2018-12-07T06:08:18.573Z,994.77
2018-12-07T06:09:24.728Z,994.73
2018-12-07T06:10:30.980Z,994.70
2018-12-07T06:11:37.230Z,994.71
2018-12-07T06:12:43.487Z,994.71
2018-12-07T06:13:49.728Z,994.72
2018-12-07T06:14:55.984Z,994.60
2018-12-07T06:16:02.257Z,994.66
2018-12-07T06:17:08.660Z,994.67
2018-12-07T06:18:14.741Z,994.68
2018-12-07T06:19:21.001Z,994.67
2018-12-07T06:20:27.236Z,994.75
2018-12-07T06:21:33.501Z,994.69
2018-12-07T06:22:39.755Z,994.63
2018-12-07T06:23:45.996Z,994.67
2018-12-07T06:24:53.245Z,994.70
2018-12-07T06:25:59.502Z,994.64
2018-12-07T06:27:04.757Z,994.55
2018-12-07T06:28:11.016Z,994.62
2018-12-07T06:29:17.242Z,994.64
2018-12-07T06:30:23.499Z,994.56
2018-12-07T06:31:29.743Z,994.61
2018-12-07T06:32:36.420Z,994.66
2018-12-07T06:33:42.249Z,994.59
2018-12-07T06:34:48.486Z,994.58
2018-12-07T06:35:54.734Z,994.58
2018-12-07T06:37:00.995Z,994.56
2018-12-07T06:38:07.230Z,994.50
2018-12-07T06:39:13.487Z,994.53
2018-12-07T06:40:19.728Z,994.53
2018-12-07T06:41:25.977Z,994.50
2018-12-07T06:42:32.239Z,994.59
2018-12-07T06:43:38.626Z,994.53
2018-12-07T06:44:44.732Z,994.45
2018-12-07T06:45:50.979Z,994.53
2018-12-07T06:46:57.239Z,994.42
2018-12-07T06:48:03.475Z,994.48
2018-12-07T06:49:10.719Z,994.47
2018-12-07T06:50:15.984Z,994.39
2018-12-07T06:51:22.227Z,994.37
2018-12-07T06:52:28.590Z,994.37
2018-12-07T06:53:34.733Z,994.32
2018-12-07T06:54:40.970Z,994.29
2018-12-07T06:55:47.227Z,994.25
2018-12-07T06:56:53.477Z,994.30
2018-12-07T06:57:59.737Z,994.20
2018-12-07T06:59:06.967Z,994.25
2018-12-07T07:00:12.233Z,994.28
2018-12-07T07:01:18.773Z,994.24
2018-12-07T07:02:24.743Z,994.26
2018-12-07T07:03:30.998Z,994.25
2018-12-07T07:04:37.250Z,994.22
2018-12-07T07:05:43.501Z,994.20
2018-12-07T07:06:49.760Z,994.20
2018-12-07T07:07:56.012Z,994.16
2018-12-07T07:09:02.261Z,994.12
2018-12-07T07:10:09.511Z,994.14
2018-12-07T07:11:14.770Z,994.13
2018-12-07T07:12:21.019Z,994.16
2018-12-07T07:13:27.275Z,994.15
2018-12-07T07:14:33.527Z,993.98
2018-12-07T07:15:39.769Z,994.14
2018-12-07T07:16:46.035Z,994.10
2018-12-07T07:17:53.286Z,994.11
2018-12-07T07:18:58.535Z,994.01
2018-12-07T07:20:04.785Z,994.10
2018-12-07T07:21:11.051Z,994.07
2018-12-07T07:22:17.285Z,994.10
2018-12-07T07:23:23.552Z,994.04
2018-12-07T07:24:29.792Z,994.04
2018-12-07T07:25:36.054Z,994.04
2018-12-07T07:26:43.290Z,993.99
2018-12-07T07:27:48.553Z,993.95
2018-12-07T07:28:54.811Z,993.93
2018-12-07T07:30:01.053Z,993.94
2018-12-07T07:31:07.299Z,993.94
2018-12-07T07:32:13.544Z,993.94
2018-12-07T07:33:19.802Z,993.93
2018-12-07T07:34:26.044Z,993.91
2018-12-07T07:35:32.307Z,993.90
2018-12-07T07:36:38.544Z,993.93
2018-12-07T07:37:44.790Z,993.87
2018-12-07T07:38:51.044Z,993.99
2018-12-07T07:39:57.273Z,993.96
2018-12-07T07:41:03.525Z,993.97
2018-12-07T07:42:09.778Z,993.99
2018-12-07T07:43:16.018Z,993.98
2018-12-07T07:44:22.274Z,993.92
2018-12-07T07:45:28.506Z,993.90
2018-12-07T07:46:34.754Z,993.86
2018-12-07T07:47:41.989Z,993.76
2018-12-07T07:48:47.260Z,993.79
2018-12-07T07:49:53.503Z,993.79
2018-12-07T07:50:59.819Z,993.78
2018-12-07T07:52:05.976Z,993.74
2018-12-07T07:53:12.228Z,993.73
2018-12-07T07:54:18.584Z,993.69
2018-12-07T07:55:24.707Z,993.67
2018-12-07T07:56:30.958Z,993.63
2018-12-07T07:57:37.203Z,993.70
2018-12-07T07:58:43.450Z,993.70
2018-12-07T07:59:49.710Z,993.56
2018-12-07T08:00:55.935Z,993.62
2018-12-07T08:02:02.185Z,993.53
2018-12-07T08:03:08.431Z,993.62
2018-12-07T08:04:14.707Z,993.53
2018-12-07T08:05:20.941Z,993.54
2018-12-07T08:06:27.208Z,993.52
2018-12-07T08:07:33.463Z,993.53
2018-12-07T08:08:39.686Z,993.51
2018-12-07T08:09:45.947Z,993.52
2018-12-07T08:10:52.201Z,993.56
2018-12-07T08:11:58.437Z,993.40
2018-12-07T08:13:04.693Z,993.38
2018-12-07T08:14:10.948Z,993.44
2018-12-07T08:15:17.206Z,993.36
2018-12-07T08:16:23.497Z,993.41
2018-12-07T08:17:29.703Z,993.35
2018-12-07T08:18:35.959Z,993.35
2018-12-07T08:19:42.216Z,993.27
2018-12-07T08:20:48.466Z,993.24
2018-12-07T08:21:54.723Z,993.24
2018-12-07T08:23:00.991Z,993.27
2018-12-07T08:24:07.246Z,993.28
2018-12-07T08:25:13.502Z,993.26
2018-12-07T08:26:19.756Z,993.19
2018-12-07T08:27:26.021Z,993.18
2018-12-07T08:28:32.277Z,993.18
2018-12-07T08:29:38.558Z,993.16
2018-12-07T08:30:44.794Z,993.13
2018-12-07T08:31:51.059Z,993.16
2018-12-07T08:32:57.311Z,993.13
2018-12-07T08:34:03.587Z,993.14
2018-12-07T08:35:09.931Z,993.07
2018-12-07T08:36:16.116Z,993.02
2018-12-07T08:37:22.369Z,993.06
2018-12-07T08:38:28.635Z,993.04
2018-12-07T08:39:34.909Z,993.02
2018-12-07T08:40:41.170Z,992.93
2018-12-07T08:41:47.433Z,993.01
2018-12-07T08:42:53.692Z,993.01
2018-12-07T08:43:59.968Z,992.98
2018-12-07T08:45:06.244Z,992.98
2018-12-07T08:46:12.492Z,992.98
2018-12-07T08:47:18.764Z,992.96
2018-12-07T08:48:25.024Z,992.94
2018-12-07T08:49:31.295Z,992.93
2018-12-07T08:50:37.545Z,992.92
2018-12-07T08:51:43.802Z,992.96
2018-12-07T08:52:50.083Z,992.84
2018-12-07T08:53:56.320Z,992.86
2018-12-07T08:55:02.607Z,992.91
2018-12-07T08:56:08.861Z,992.90
2018-12-07T08:57:15.124Z,992.85
2018-12-07T08:58:22.368Z,992.88
2018-12-07T08:59:27.637Z,992.87
2018-12-07T09:00:33.894Z,992.85
2018-12-07T09:01:40.154Z,992.79
2018-12-07T09:02:46.408Z,992.81
2018-12-07T09:03:52.667Z,992.73
2018-12-07T09:04:58.918Z,992.71
2018-12-07T09:06:05.177Z,992.72
2018-12-07T09:07:11.423Z,992.64
2018-12-07T09:08:17.679Z,992.69
2018-12-07T09:09:23.928Z,992.67
2018-12-07T09:10:30.190Z,992.69
2018-12-07T09:11:37.443Z,992.72
2018-12-07T09:12:42.702Z,992.69
2018-12-07T09:13:48.973Z,992.69
2018-12-07T09:14:56.209Z,992.67
2018-12-07T09:16:01.476Z,992.63
2018-12-07T09:17:07.730Z,992.69
2018-12-07T09:18:13.978Z,992.55
2018-12-07T09:19:20.225Z,992.57
2018-12-07T09:20:26.655Z,992.56
2018-12-07T09:21:32.724Z,992.50
2018-12-07T09:22:38.970Z,992.63
2018-12-07T09:23:49.563Z,992.55
2018-12-07T09:24:51.478Z,992.56
2018-12-07T09:25:57.727Z,992.52
2018-12-07T09:27:03.971Z,992.48
2018-12-07T09:28:10.227Z,992.45
2018-12-07T09:29:16.575Z,992.46
2018-12-07T09:30:22.737Z,992.39
2018-12-07T09:31:28.993Z,992.47
2018-12-07T09:32:35.238Z,992.42
2018-12-07T09:33:41.491Z,992.44
2018-12-07T09:34:47.743Z,992.48
2018-12-07T09:35:54.006Z,992.42
2018-12-07T09:37:00.257Z,992.33
2018-12-07T09:38:12.962Z,992.35
2018-12-07T09:39:12.784Z,992.34
2018-12-07T09:40:19.015Z,992.35
2018-12-07T09:41:25.292Z,992.30
2018-12-07T09:42:31.542Z,992.28
2018-12-07T09:43:37.801Z,992.27
2018-12-07T09:44:44.054Z,992.24
2018-12-07T09:45:50.316Z,992.19
2018-12-07T09:46:56.578Z,992.19
2018-12-07T09:48:02.828Z,992.16
2018-12-07T09:49:09.086Z,992.11
2018-12-07T09:50:15.346Z,992.18
2018-12-07T09:51:21.615Z,992.06
2018-12-07T09:52:27.856Z,992.04
2018-12-07T09:53:34.540Z,991.96
2018-12-07T09:54:40.376Z,992.00
2018-12-07T09:55:46.640Z,991.84
2018-12-07T09:56:52.902Z,991.83
2018-12-07T09:57:59.166Z,991.84
2018-12-07T09:59:05.419Z,991.81
2018-12-07T10:00:11.674Z,991.78
2018-12-07T10:01:19.037Z,991.76
2018-12-07T10:02:25.209Z,991.77
2018-12-07T10:03:31.788Z,991.72
2018-12-07T10:04:36.732Z,991.79
2018-12-07T10:05:43.010Z,991.73
2018-12-07T10:06:49.270Z,991.67
2018-12-07T10:07:55.552Z,991.72
2018-12-07T10:09:01.809Z,991.72
2018-12-07T10:10:08.066Z,991.68
2018-12-07T10:11:14.341Z,991.71
2018-12-07T10:12:20.611Z,991.75
2018-12-07T10:13:26.864Z,991.87
2018-12-07T10:14:33.136Z,991.92
2018-12-07T10:15:39.377Z,991.87
2018-12-07T10:16:45.645Z,991.87
2018-12-07T10:17:51.909Z,991.89
2018-12-07T10:18:58.160Z,991.94
2018-12-07T10:20:04.432Z,991.86
2018-12-07T10:21:10.679Z,991.90
2018-12-07T10:22:17.137Z,991.88
2018-12-07T10:23:23.211Z,991.90
2018-12-07T10:24:29.463Z,991.91
2018-12-07T10:25:35.716Z,991.77
2018-12-07T10:26:41.970Z,991.77
2018-12-07T10:27:48.248Z,991.78
2018-12-07T10:28:54.582Z,991.70
2018-12-07T10:30:00.758Z,991.68
2018-12-07T10:31:07.008Z,991.69
2018-12-07T10:32:13.267Z,991.69
2018-12-07T10:33:19.523Z,991.67
2018-12-07T10:34:25.789Z,991.56
2018-12-07T10:35:32.032Z,991.57
2018-12-07T10:36:38.294Z,991.55
2018-12-07T10:37:44.552Z,991.50
2018-12-07T10:38:50.800Z,991.46
2018-12-07T10:39:57.061Z,991.39
2018-12-07T10:41:03.325Z,991.37
2018-12-07T10:42:09.562Z,991.36
2018-12-07T10:43:15.822Z,991.34
2018-12-07T10:44:22.074Z,991.36
2018-12-07T10:45:28.330Z,991.30
2018-12-07T10:46:34.581Z,991.24
2018-12-07T10:47:40.842Z,991.25
2018-12-07T10:48:47.088Z,991.21
2018-12-07T10:49:53.341Z,991.15
2018-12-07T10:50:59.590Z,991.14
2018-12-07T10:52:05.862Z,991.15
2018-12-07T10:53:12.112Z,991.14
2018-12-07T10:54:18.362Z,991.09
2018-12-07T10:55:24.624Z,991.00
2018-12-07T10:56:30.869Z,990.99
2018-12-07T10:57:37.144Z,990.89
2018-12-07T10:58:43.405Z,990.91
2018-12-07T10:59:49.650Z,990.86
2018-12-07T11:00:55.919Z,990.73
2018-12-07T11:02:02.173Z,990.82
2018-12-07T11:03:08.443Z,990.62
2018-12-07T11:04:14.701Z,990.59
2018-12-07T11:05:22.393Z,990.49
2018-12-07T11:06:27.215Z,990.55
2018-12-07T11:07:33.478Z,990.46
2018-12-07T11:08:39.745Z,990.51
2018-12-07T11:09:46.313Z,990.44
2018-12-07T11:10:52.264Z,990.36
2018-12-07T11:11:58.524Z,990.33
2018-12-07T11:13:04.792Z,990.28
2018-12-07T11:14:11.049Z,990.16
2018-12-07T11:15:17.320Z,990.15
2018-12-07T11:16:23.583Z,990.11
2018-12-07T11:17:29.846Z,990.19
2018-12-07T11:18:36.111Z,990.07
2018-12-07T11:19:42.382Z,990.07
2018-12-07T11:20:48.646Z,990.03
2018-12-07T11:21:54.965Z,989.94
2018-12-07T11:23:01.175Z,989.95
2018-12-07T11:24:07.445Z,989.92
2018-12-07T11:25:13.705Z,989.88
2018-12-07T11:26:19.970Z,989.87
2018-12-07T11:27:26.240Z,989.82
2018-12-07T11:28:32.502Z,989.73
2018-12-07T11:29:38.775Z,989.61
2018-12-07T11:30:45.328Z,989.62
2018-12-07T11:31:51.320Z,989.75
2018-12-07T11:32:57.558Z,989.59
2018-12-07T11:34:03.829Z,989.55
2018-12-07T11:35:10.081Z,989.52
2018-12-07T11:36:16.358Z,989.39
2018-12-07T11:37:22.620Z,989.39
2018-12-07T11:38:28.882Z,989.46
2018-12-07T11:39:35.149Z,989.46
2018-12-07T11:40:41.412Z,989.63
2018-12-07T11:41:47.694Z,989.41
2018-12-07T11:42:53.935Z,989.29
2018-12-07T11:44:00.199Z,989.33
2018-12-07T11:45:06.576Z,989.35
2018-12-07T11:46:12.727Z,989.25
2018-12-07T11:47:18.993Z,989.31
2018-12-07T11:48:25.257Z,989.45
2018-12-07T11:49:31.524Z,989.30
2018-12-07T11:50:37.776Z,989.31
2018-12-07T11:51:44.044Z,989.18
2018-12-07T11:52:51.299Z,989.07
2018-12-07T11:53:56.567Z,989.08
2018-12-07T11:55:02.830Z,989.05
2018-12-07T11:56:10.089Z,989.01
2018-12-07T11:57:15.350Z,988.81
2018-12-07T11:58:21.628Z,988.81
2018-12-07T11:59:27.891Z,988.78
2018-12-07T12:00:34.151Z,988.71
2018-12-07T12:01:44.765Z,988.59
2018-12-07T12:02:46.672Z,988.57
2018-12-07T12:03:52.958Z,988.61
2018-12-07T12:04:59.213Z,988.43
2018-12-07T12:06:05.479Z,988.48
2018-12-07T12:07:11.747Z,988.45
2018-12-07T12:08:18.024Z,988.34
2018-12-07T12:09:24.291Z,988.37
2018-12-07T12:10:30.550Z,988.32
2018-12-07T12:11:36.821Z,988.39
2018-12-07T12:12:43.092Z,988.39
2018-12-07T12:13:49.344Z,988.35
2018-12-07T12:14:55.631Z,988.29
2018-12-07T12:16:01.893Z,988.29
2018-12-07T12:17:08.161Z,988.26
2018-12-07T12:18:14.432Z,988.22
2018-12-07T12:19:20.704Z,988.08
2018-12-07T12:20:26.966Z,988.18
2018-12-07T12:21:33.234Z,988.07
2018-12-07T12:22:39.590Z,987.97
2018-12-07T12:23:45.774Z,988.04
2018-12-07T12:24:52.056Z,988.01
2018-12-07T12:25:58.317Z,987.72
2018-12-07T12:27:04.582Z,987.79
2018-12-07T12:28:10.857Z,987.74
2018-12-07T12:29:17.130Z,987.93
2018-12-07T12:30:23.408Z,987.79
2018-12-07T12:31:29.661Z,987.77
2018-12-07T12:32:35.938Z,987.61
2018-12-07T12:33:42.212Z,987.74
2018-12-07T12:34:48.500Z,987.80
2018-12-07T12:35:55.737Z,987.94
2018-12-07T12:37:01.023Z,987.84
2018-12-07T12:38:07.283Z,987.96
2018-12-07T12:39:13.561Z,988.23
2018-12-07T12:40:19.836Z,988.24
2018-12-07T12:41:26.107Z,988.35
2018-12-07T12:42:32.361Z,988.34
2018-12-07T12:43:38.627Z,988.34
2018-12-07T12:44:44.902Z,988.38
2018-12-07T12:45:51.165Z,988.34
2018-12-07T12:46:57.422Z,988.42
2018-12-07T12:48:03.685Z,988.38
2018-12-07T12:49:09.944Z,988.42
2018-12-07T12:50:16.227Z,988.43
2018-12-07T12:51:22.583Z,988.41
2018-12-07T12:52:28.739Z,988.43
2018-12-07T12:53:34.994Z,988.41
2018-12-07T12:54:41.267Z,988.37
2018-12-07T12:55:47.527Z,988.38
2018-12-07T12:56:53.796Z,988.41
2018-12-07T12:58:00.048Z,988.37
2018-12-07T12:59:06.307Z,988.29
2018-12-07T13:00:12.570Z,988.37
2018-12-07T13:01:18.825Z,988.34
2018-12-07T13:02:25.070Z,988.41
2018-12-07T13:03:31.336Z,988.32
2018-12-07T13:04:37.582Z,988.26
2018-12-07T13:05:43.858Z,988.28
2018-12-07T13:06:50.098Z,988.24
2018-12-07T13:07:56.365Z,988.27
2018-12-07T13:09:02.602Z,988.20
2018-12-07T13:10:08.845Z,988.22
2018-12-07T13:11:15.186Z,988.24
2018-12-07T13:12:21.364Z,988.16
2018-12-07T13:13:27.612Z,988.14
2018-12-07T13:14:33.877Z,988.05
2018-12-07T13:15:40.113Z,988.09
2018-12-07T13:16:46.379Z,988.06
2018-12-07T13:17:52.632Z,987.95
2018-12-07T13:18:58.915Z,987.94
2018-12-07T13:20:07.071Z,987.93
2018-12-07T13:21:11.427Z,987.94
2018-12-07T13:23:23.891Z,987.83
2018-12-07T13:24:30.130Z,987.87
2018-12-07T13:25:36.443Z,987.84
2018-12-07T13:26:42.631Z,987.79
2018-12-07T13:27:49.828Z,987.79
2018-12-07T13:28:55.127Z,987.73
2018-12-07T13:30:01.424Z,987.69
2018-12-07T13:31:08.150Z,987.63
2018-12-07T13:32:13.966Z,987.62
2018-12-07T13:33:20.201Z,987.66
2018-12-07T13:34:26.399Z,987.62
2018-12-07T13:35:32.639Z,987.52
2018-12-07T13:36:38.881Z,987.51
2018-12-07T13:37:45.119Z,987.42
2018-12-07T13:38:51.407Z,987.51
2018-12-07T13:39:58.139Z,987.32
2018-12-07T13:41:03.880Z,987.31
2018-12-07T13:42:10.196Z,987.15
2018-12-07T13:43:17.553Z,987.17
2018-12-07T13:44:23.894Z,987.06
2018-12-07T13:45:30.109Z,987.12
2018-12-07T13:46:36.161Z,987.16
2018-12-07T13:47:41.427Z,987.03